createdAt,value
2017-03-22T00:00:21.348Z,82.10
2017-03-22T00:00:43.047Z,82.22
2017-03-22T00:01:09.603Z,82.29
2017-03-22T00:01:31.291Z,82.35
2017-03-22T00:01:52.999Z,82.73
2017-03-22T00:02:14.700Z,82.90
2017-03-22T00:02:36.477Z,82.61
2017-03-22T00:02:58.182Z,82.45
2017-03-22T00:03:19.891Z,82.64
2017-03-22T00:03:41.582Z,82.65
2017-03-22T00:04:40.081Z,82.46
2017-03-22T00:05:01.814Z,82.51
2017-03-22T00:05:23.512Z,82.72
2017-03-22T00:05:54.767Z,82.89
2017-03-22T00:06:16.558Z,83.19
2017-03-22T00:06:47.814Z,83.61
2017-03-22T00:07:09.626Z,83.42
2017-03-22T00:07:31.331Z,83.36
2017-03-22T00:07:53.028Z,83.46
2017-03-22T00:08:14.741Z,83.16
2017-03-22T00:08:41.299Z,83.38
2017-03-22T00:09:02.996Z,83.26
2017-03-22T00:09:24.691Z,83.21
2017-03-22T00:09:46.401Z,83.08
2017-03-22T00:10:08.235Z,82.98
2017-03-22T00:10:29.938Z,83.41
2017-03-22T00:10:51.633Z,83.38
2017-03-22T00:11:13.316Z,83.10
2017-03-22T00:11:44.562Z,82.90
2017-03-22T00:12:06.382Z,82.72
2017-03-22T00:13:04.768Z,82.29
2017-03-22T00:13:26.467Z,82.14
2017-03-22T00:13:48.165Z,82.05
2017-03-22T00:14:19.429Z,82.09
2017-03-22T00:14:41.210Z,82.04
2017-03-22T00:15:02.944Z,81.97
2017-03-22T00:15:24.657Z,81.98
2017-03-22T00:15:46.442Z,81.96
2017-03-22T00:16:48.943Z,81.95
2017-03-22T00:17:15.416Z,82.01
2017-03-22T00:17:37.124Z,82.19
2017-03-22T00:18:08.383Z,81.94
2017-03-22T00:18:30.168Z,81.55
2017-03-22T00:18:51.861Z,81.25
2017-03-22T00:19:13.560Z,81.16
2017-03-22T00:19:35.247Z,81.01
2017-03-22T00:20:01.838Z,81.37
2017-03-22T00:20:23.552Z,81.65
2017-03-22T00:20:50.027Z,82.09
2017-03-22T00:21:11.817Z,82.01
2017-03-22T00:21:33.531Z,81.82
2017-03-22T00:21:55.232Z,81.51
2017-03-22T00:22:16.924Z,81.48
2017-03-22T00:22:38.695Z,81.31
2017-03-22T00:23:05.172Z,81.21
2017-03-22T00:23:26.869Z,81.13
2017-03-22T00:23:48.573Z,81.06
2017-03-22T00:24:19.814Z,81.27
2017-03-22T00:24:41.617Z,81.62
2017-03-22T00:25:08.134Z,81.53
2017-03-22T00:25:29.841Z,81.44
2017-03-22T00:25:56.381Z,81.49
2017-03-22T00:26:18.091Z,81.31
2017-03-22T00:26:44.560Z,81.18
2017-03-22T00:27:06.248Z,81.46
2017-03-22T00:27:28.031Z,81.35
2017-03-22T00:27:49.735Z,81.39
2017-03-22T00:28:11.441Z,81.37
2017-03-22T00:28:33.143Z,81.34
2017-03-22T00:28:54.933Z,81.60
2017-03-22T00:29:16.641Z,81.63
2017-03-22T00:29:38.343Z,81.71
2017-03-22T00:30:00.048Z,81.72
2017-03-22T00:30:26.625Z,82.01
2017-03-22T00:30:49.352Z,81.97
2017-03-22T00:31:11.049Z,81.99
2017-03-22T00:31:32.786Z,81.85
2017-03-22T00:31:54.555Z,81.91
2017-03-22T00:32:52.980Z,81.73
2017-03-22T00:33:14.778Z,81.77
2017-03-22T00:33:36.484Z,81.98
2017-03-22T00:33:58.192Z,82.06
2017-03-22T00:34:19.887Z,82.47
2017-03-22T00:34:46.449Z,82.79
2017-03-22T00:35:08.151Z,82.99
2017-03-22T00:35:39.417Z,83.09
2017-03-22T00:36:01.168Z,83.10
2017-03-22T00:36:22.867Z,83.36
2017-03-22T00:36:44.581Z,83.42
2017-03-22T00:37:06.269Z,83.31
2017-03-22T00:37:28.065Z,83.41
2017-03-22T00:37:59.337Z,83.48
2017-03-22T00:38:21.010Z,83.43
2017-03-22T00:38:42.803Z,83.54
2017-03-22T00:39:14.088Z,83.68
2017-03-22T00:39:45.460Z,83.61
2017-03-22T00:41:27.212Z,82.68
2017-03-22T00:41:53.758Z,82.74
2017-03-22T00:42:15.479Z,82.79
2017-03-22T00:42:41.969Z,82.56
2017-03-22T00:43:03.697Z,82.63
2017-03-22T00:43:30.193Z,82.80
2017-03-22T00:44:32.754Z,83.03
2017-03-22T00:44:59.238Z,83.01
2017-03-22T00:45:20.942Z,82.90
2017-03-22T00:45:42.635Z,82.90
2017-03-22T00:46:04.353Z,82.86
2017-03-22T00:46:26.039Z,82.68
2017-03-22T00:46:47.773Z,82.50
2017-03-22T00:47:09.493Z,82.40
2017-03-22T00:47:40.762Z,82.23
2017-03-22T00:48:02.475Z,82.28
2017-03-22T00:48:24.231Z,82.03
2017-03-22T00:48:46.020Z,81.93
2017-03-22T00:49:48.618Z,81.77
2017-03-22T00:50:10.402Z,81.57
2017-03-22T00:50:36.908Z,81.59
2017-03-22T00:51:03.489Z,81.57
2017-03-22T00:51:25.254Z,81.99
2017-03-22T00:51:51.852Z,82.02
2017-03-22T00:52:13.614Z,82.08
2017-03-22T00:52:44.899Z,82.26
2017-03-22T00:53:06.633Z,82.28
2017-03-22T00:53:37.912Z,82.22
2017-03-22T00:53:59.648Z,82.54
2017-03-22T00:54:30.909Z,82.37
2017-03-22T00:54:52.639Z,82.05
2017-03-22T00:55:19.150Z,82.07
2017-03-22T00:56:31.213Z,81.73
2017-03-22T00:56:52.956Z,81.57
2017-03-22T00:57:19.533Z,81.79
2017-03-22T00:57:41.317Z,81.94
2017-03-22T00:58:43.846Z,81.86
2017-03-22T00:59:15.248Z,81.77
2017-03-22T00:59:36.977Z,81.50
2017-03-22T01:00:03.465Z,81.54
2017-03-22T01:00:25.213Z,81.66
2017-03-22T01:00:51.730Z,81.82
2017-03-22T01:01:13.491Z,82.01
2017-03-22T01:01:44.749Z,82.31
2017-03-22T01:02:06.452Z,82.17
2017-03-22T01:02:28.154Z,82.03
2017-03-22T01:02:49.868Z,82.23
2017-03-22T01:03:11.570Z,82.18
2017-03-22T01:03:33.271Z,82.01
2017-03-22T01:03:55.000Z,82.18
2017-03-22T01:04:16.715Z,82.21
2017-03-22T01:04:38.430Z,81.99
2017-03-22T01:05:00.149Z,81.82
2017-03-22T01:05:21.865Z,81.90
2017-03-22T01:05:43.575Z,81.90
2017-03-22T01:06:05.287Z,82.10
2017-03-22T01:06:27.014Z,82.33
2017-03-22T01:06:48.738Z,82.14
2017-03-22T01:07:10.464Z,82.17
2017-03-22T01:07:32.213Z,81.99
2017-03-22T01:07:53.944Z,82.05
2017-03-22T01:08:15.651Z,82.06
2017-03-22T01:08:37.369Z,82.38
2017-03-22T01:08:59.077Z,82.57
2017-03-22T01:09:20.804Z,82.61
2017-03-22T01:09:47.374Z,82.67
2017-03-22T01:10:09.075Z,82.55
2017-03-22T01:10:30.782Z,82.31
2017-03-22T01:10:52.478Z,82.14
2017-03-22T01:11:14.197Z,82.27
2017-03-22T01:11:35.938Z,82.08
2017-03-22T01:11:57.665Z,82.05
2017-03-22T01:12:19.402Z,82.03
2017-03-22T01:12:41.128Z,82.17
2017-03-22T01:13:02.881Z,82.04
2017-03-22T01:13:24.605Z,81.80
2017-03-22T01:13:46.333Z,81.79
2017-03-22T01:14:08.052Z,81.56
2017-03-22T01:14:29.759Z,81.48
2017-03-22T01:14:51.545Z,81.57
2017-03-22T01:15:13.293Z,81.77
2017-03-22T01:15:34.991Z,81.96
2017-03-22T01:15:56.747Z,82.27
2017-03-22T01:16:18.456Z,82.40
2017-03-22T01:16:40.210Z,82.48
2017-03-22T01:17:01.943Z,82.38
2017-03-22T01:17:23.661Z,82.12
2017-03-22T01:17:45.393Z,81.81
2017-03-22T01:18:07.115Z,81.58
2017-03-22T01:18:28.838Z,81.40
2017-03-22T01:18:50.579Z,81.32
2017-03-22T01:19:12.308Z,81.22
2017-03-22T01:19:34.052Z,81.10
2017-03-22T01:19:55.769Z,81.21
2017-03-22T01:20:17.495Z,81.33
2017-03-22T01:20:39.226Z,81.37
2017-03-22T01:21:00.955Z,81.27
2017-03-22T01:21:22.685Z,81.32
2017-03-22T01:21:44.439Z,81.22
2017-03-22T01:22:06.175Z,81.26
2017-03-22T01:22:27.899Z,81.49
2017-03-22T01:22:49.632Z,81.48
2017-03-22T01:23:11.356Z,81.72
2017-03-22T01:23:33.166Z,81.56
2017-03-22T01:23:54.867Z,81.39
2017-03-22T01:24:16.558Z,81.24
2017-03-22T01:24:38.290Z,81.34
2017-03-22T01:25:00.040Z,81.74
2017-03-22T01:25:21.766Z,81.78
2017-03-22T01:25:43.487Z,81.88
2017-03-22T01:26:05.231Z,81.76
2017-03-22T01:26:26.979Z,81.71
2017-03-22T01:26:48.730Z,81.71
2017-03-22T01:27:10.508Z,81.54
2017-03-22T01:27:32.231Z,81.57
2017-03-22T01:27:53.969Z,81.51
2017-03-22T01:28:15.709Z,81.46
2017-03-22T01:28:37.408Z,81.47
2017-03-22T01:28:59.124Z,81.52
2017-03-22T01:29:20.839Z,81.54
2017-03-22T01:29:42.574Z,81.59
2017-03-22T01:30:04.299Z,81.65
2017-03-22T01:30:26.028Z,81.65
2017-03-22T01:30:47.903Z,81.52
2017-03-22T01:31:09.633Z,81.54
2017-03-22T01:31:31.363Z,81.43
2017-03-22T01:31:53.103Z,81.27
2017-03-22T01:32:14.890Z,81.46
2017-03-22T01:32:36.620Z,81.55
2017-03-22T01:32:58.387Z,81.51
2017-03-22T01:33:20.130Z,81.53
2017-03-22T01:33:41.874Z,81.65
2017-03-22T01:34:03.612Z,81.49
2017-03-22T01:34:25.352Z,81.56
2017-03-22T01:34:47.071Z,81.50
2017-03-22T01:35:08.821Z,81.65
2017-03-22T01:35:30.598Z,81.67
2017-03-22T01:35:52.327Z,81.69
2017-03-22T01:36:14.072Z,82.12
2017-03-22T01:36:35.804Z,82.40
2017-03-22T01:36:57.571Z,82.45
2017-03-22T01:37:19.302Z,82.27
2017-03-22T01:37:41.024Z,82.14
2017-03-22T01:38:02.768Z,82.13
2017-03-22T01:38:24.528Z,82.30
2017-03-22T01:38:46.251Z,82.33
2017-03-22T01:39:07.976Z,82.27
2017-03-22T01:39:29.717Z,82.36
2017-03-22T01:39:51.460Z,82.59
2017-03-22T01:40:13.212Z,82.61
2017-03-22T01:41:15.735Z,82.52
2017-03-22T01:41:37.451Z,82.48
2017-03-22T01:41:59.189Z,82.76
2017-03-22T01:42:20.966Z,83.25
2017-03-22T01:42:42.646Z,83.41
2017-03-22T01:43:04.403Z,83.54
2017-03-22T01:43:26.171Z,83.58
2017-03-22T01:43:47.880Z,83.62
2017-03-22T01:44:09.579Z,83.61
2017-03-22T01:44:31.294Z,83.35
2017-03-22T01:46:06.123Z,82.89
2017-03-22T01:46:32.629Z,83.12
2017-03-22T01:46:54.338Z,83.10
2017-03-22T01:47:16.081Z,82.68
2017-03-22T01:47:37.814Z,82.56
2017-03-22T01:47:59.534Z,82.32
2017-03-22T01:48:21.268Z,82.82
2017-03-22T01:48:42.978Z,83.16
2017-03-22T01:49:04.737Z,83.04
2017-03-22T01:49:27.499Z,83.36
2017-03-22T01:49:53.995Z,83.38
2017-03-22T01:50:15.727Z,83.43
2017-03-22T01:50:37.478Z,83.52
2017-03-22T01:51:36.066Z,83.25
2017-03-22T01:51:59.100Z,83.14
2017-03-22T01:52:30.488Z,83.21
2017-03-22T01:52:55.037Z,83.28
2017-03-22T01:53:21.538Z,83.01
2017-03-22T01:53:43.616Z,82.90
2017-03-22T01:54:46.817Z,83.09
2017-03-22T01:55:45.472Z,83.16
2017-03-22T01:56:43.897Z,82.98
2017-03-22T01:57:05.712Z,83.14
2017-03-22T01:57:32.217Z,83.02
2017-03-22T01:57:54.060Z,83.17
2017-03-22T01:58:57.180Z,83.62
2017-03-22T01:59:23.897Z,83.60
2017-03-22T01:59:45.642Z,83.63
2017-03-22T02:00:12.207Z,83.58
2017-03-22T02:00:34.025Z,83.67
2017-03-22T02:01:00.590Z,83.57
2017-03-22T02:01:22.490Z,83.46
2017-03-22T02:01:49.202Z,83.25
2017-03-22T02:02:11.027Z,83.06
2017-03-22T02:02:37.566Z,83.35
2017-03-22T02:03:04.134Z,83.44
2017-03-22T02:03:25.905Z,83.56
2017-03-22T02:03:57.193Z,83.49
2017-03-22T02:04:21.644Z,83.18
2017-03-22T02:04:48.179Z,83.13
2017-03-22T02:05:09.965Z,83.20
2017-03-22T02:05:41.465Z,83.15
2017-03-22T02:06:03.181Z,83.22
2017-03-22T02:06:34.436Z,82.98
2017-03-22T02:06:56.227Z,83.15
2017-03-22T02:07:18.032Z,83.19
2017-03-22T02:07:44.546Z,83.08
2017-03-22T02:08:06.312Z,83.32
2017-03-22T02:08:28.187Z,83.40
2017-03-22T02:08:49.947Z,83.41
2017-03-22T02:09:11.773Z,83.50
2017-03-22T02:09:38.438Z,83.73
2017-03-22T02:10:00.195Z,83.83
2017-03-22T02:11:45.141Z,84.31
2017-03-22T02:12:12.768Z,84.20
2017-03-22T02:12:34.583Z,84.09
2017-03-22T02:13:32.980Z,84.13
2017-03-22T02:13:54.853Z,84.23
2017-03-22T02:14:21.365Z,84.19
2017-03-22T02:14:43.121Z,84.12
2017-03-22T02:15:09.746Z,84.48
2017-03-22T02:15:31.482Z,84.51
2017-03-22T02:16:35.100Z,83.77
2017-03-22T02:16:56.839Z,83.62
2017-03-22T02:17:18.597Z,83.44
2017-03-22T02:17:45.218Z,83.33
2017-03-22T02:18:06.951Z,83.09
2017-03-22T02:18:38.232Z,82.87
2017-03-22T02:19:00.019Z,82.89
2017-03-22T02:19:58.708Z,82.95
2017-03-22T02:20:20.425Z,82.81
2017-03-22T02:20:42.226Z,82.65
2017-03-22T02:21:03.946Z,82.69
2017-03-22T02:21:25.725Z,82.71
2017-03-22T02:21:47.475Z,82.75
2017-03-22T02:22:09.274Z,82.73
2017-03-22T02:22:31.063Z,82.68
2017-03-22T02:22:53.004Z,82.67
2017-03-22T02:23:55.613Z,82.51
2017-03-22T02:24:17.491Z,82.48
2017-03-22T02:24:39.277Z,82.62
2017-03-22T02:25:01.007Z,82.75
2017-03-22T02:25:22.737Z,82.61
2017-03-22T02:25:44.571Z,82.43
2017-03-22T02:26:06.312Z,82.59
2017-03-22T02:26:28.072Z,82.46
2017-03-22T02:26:49.858Z,82.34
2017-03-22T02:27:11.756Z,82.61
2017-03-22T02:27:33.582Z,82.81
2017-03-22T02:27:55.399Z,82.98
2017-03-22T02:28:17.120Z,83.04
2017-03-22T02:28:38.973Z,83.20
2017-03-22T02:29:00.707Z,83.13
2017-03-22T02:29:22.469Z,83.22
2017-03-22T02:29:44.215Z,83.13
2017-03-22T02:30:06.051Z,83.02
2017-03-22T02:30:27.826Z,83.05
2017-03-22T02:30:49.607Z,83.06
2017-03-22T02:31:11.395Z,83.10
2017-03-22T02:31:33.201Z,82.91
2017-03-22T02:31:59.733Z,82.75
2017-03-22T02:33:02.242Z,82.61
2017-03-22T02:33:24.084Z,82.70
2017-03-22T02:33:45.840Z,82.56
2017-03-22T02:34:07.662Z,82.39
2017-03-22T02:34:29.470Z,82.61
2017-03-22T02:34:51.320Z,82.79
2017-03-22T02:35:13.069Z,82.88
2017-03-22T02:35:34.798Z,82.90
2017-03-22T02:35:56.587Z,83.06
2017-03-22T02:36:59.098Z,83.66
2017-03-22T02:37:20.810Z,83.78
2017-03-22T02:37:42.645Z,83.83
2017-03-22T02:38:04.501Z,83.69
2017-03-22T02:38:26.341Z,83.71
2017-03-22T02:38:48.122Z,83.69
2017-03-22T02:39:09.894Z,83.76
2017-03-22T02:39:31.766Z,83.79
2017-03-22T02:39:53.497Z,83.94
2017-03-22T02:40:15.299Z,84.29
2017-03-22T02:40:41.919Z,84.09
2017-03-22T02:41:06.491Z,83.98
2017-03-22T02:41:37.764Z,83.71
2017-03-22T02:42:02.495Z,83.67
2017-03-22T02:42:31.517Z,83.37
2017-03-22T02:43:02.747Z,83.04
2017-03-22T02:43:24.602Z,83.00
2017-03-22T02:43:55.940Z,82.88
2017-03-22T02:44:17.731Z,82.92
2017-03-22T02:44:44.304Z,82.90
2017-03-22T02:45:06.052Z,82.69
2017-03-22T02:45:32.600Z,82.66
2017-03-22T02:45:54.433Z,82.97
2017-03-22T02:46:21.017Z,83.06
2017-03-22T02:46:42.811Z,82.97
2017-03-22T02:47:09.308Z,83.04
2017-03-22T02:47:32.235Z,83.09
2017-03-22T02:47:58.757Z,82.72
2017-03-22T02:48:20.495Z,82.66
2017-03-22T02:48:43.465Z,82.71
2017-03-22T02:49:41.981Z,82.72
2017-03-22T02:50:03.723Z,82.49
2017-03-22T02:50:25.395Z,82.39
2017-03-22T02:50:47.096Z,82.25
2017-03-22T02:51:08.782Z,82.63
2017-03-22T02:51:30.733Z,82.75
2017-03-22T02:51:52.616Z,82.70
2017-03-22T02:52:14.387Z,82.75
2017-03-22T02:52:36.116Z,82.69
2017-03-22T02:52:58.002Z,82.67
2017-03-22T02:53:19.742Z,82.71
2017-03-22T02:53:41.514Z,82.85
2017-03-22T02:54:03.302Z,82.78
2017-03-22T02:54:25.173Z,82.93
2017-03-22T02:54:46.930Z,82.83
2017-03-22T02:55:08.668Z,82.82
2017-03-22T02:55:30.378Z,82.97
2017-03-22T02:55:52.259Z,83.09
2017-03-22T02:56:13.987Z,83.11
2017-03-22T02:56:35.861Z,83.10
2017-03-22T02:56:57.749Z,82.81
2017-03-22T02:57:19.604Z,82.90
2017-03-22T02:57:41.440Z,83.04
2017-03-22T02:58:03.191Z,83.05
2017-03-22T02:58:25.091Z,82.93
2017-03-22T02:58:46.921Z,83.03
2017-03-22T02:59:08.667Z,83.10
2017-03-22T02:59:30.427Z,83.06
2017-03-22T02:59:52.240Z,83.12
2017-03-22T03:00:14.187Z,83.03
2017-03-22T03:00:35.970Z,83.07
2017-03-22T03:00:57.954Z,83.27
2017-03-22T03:01:19.706Z,83.55
2017-03-22T03:01:41.523Z,83.67
2017-03-22T03:02:03.285Z,83.50
2017-03-22T03:02:29.850Z,83.79
2017-03-22T03:03:28.470Z,83.95
2017-03-22T03:03:50.170Z,83.97
2017-03-22T03:04:11.883Z,83.62
2017-03-22T03:04:33.592Z,83.49
2017-03-22T03:04:55.335Z,83.26
2017-03-22T03:05:17.071Z,83.18
2017-03-22T03:05:38.858Z,83.27
2017-03-22T03:06:00.579Z,83.31
2017-03-22T03:06:22.311Z,83.55
2017-03-22T03:06:44.278Z,83.61
2017-03-22T03:07:06.022Z,83.54
2017-03-22T03:07:27.760Z,83.33
2017-03-22T03:07:49.489Z,83.22
2017-03-22T03:08:11.246Z,83.04
2017-03-22T03:08:32.991Z,83.10
2017-03-22T03:08:54.714Z,83.06
2017-03-22T03:09:16.437Z,83.25
2017-03-22T03:09:38.165Z,83.23
2017-03-22T03:09:59.929Z,83.01
2017-03-22T03:10:21.800Z,83.05
2017-03-22T03:10:43.571Z,82.93
2017-03-22T03:11:05.316Z,82.81
2017-03-22T03:11:27.082Z,82.81
2017-03-22T03:11:48.807Z,82.79
2017-03-22T03:12:10.555Z,82.73
2017-03-22T03:12:34.891Z,82.77
2017-03-22T03:12:56.615Z,82.72
2017-03-22T03:13:18.328Z,82.91
2017-03-22T03:13:40.051Z,83.19
2017-03-22T03:14:02.035Z,83.46
2017-03-22T03:14:23.831Z,83.49
2017-03-22T03:14:45.638Z,83.38
2017-03-22T03:15:07.443Z,83.17
2017-03-22T03:15:29.261Z,83.13
2017-03-22T03:15:55.838Z,83.01
2017-03-22T03:16:17.566Z,83.13
2017-03-22T03:16:39.277Z,83.40
2017-03-22T03:17:05.974Z,83.26
2017-03-22T03:17:27.594Z,83.21
2017-03-22T03:18:30.120Z,82.85
2017-03-22T03:18:51.856Z,82.76
2017-03-22T03:19:23.114Z,83.03
2017-03-22T03:19:44.806Z,83.24
2017-03-22T03:20:06.538Z,83.49
2017-03-22T03:20:28.242Z,83.60
2017-03-22T03:20:49.929Z,83.75
2017-03-22T03:21:11.663Z,83.80
2017-03-22T03:21:33.388Z,83.64
2017-03-22T03:22:04.649Z,83.38
2017-03-22T03:22:31.199Z,83.32
2017-03-22T03:22:52.947Z,83.43
2017-03-22T03:23:14.680Z,83.33
2017-03-22T03:23:36.420Z,83.49
2017-03-22T03:23:58.167Z,83.70
2017-03-22T03:24:20.108Z,83.43
2017-03-22T03:24:41.848Z,83.12
2017-03-22T03:25:44.389Z,82.80
2017-03-22T03:26:06.114Z,82.75
2017-03-22T03:26:27.948Z,82.88
2017-03-22T03:26:49.691Z,82.80
2017-03-22T03:27:11.391Z,82.82
2017-03-22T03:27:37.880Z,83.17
2017-03-22T03:27:59.602Z,83.26
2017-03-22T03:28:21.315Z,83.22
2017-03-22T03:28:47.822Z,82.98
2017-03-22T03:29:09.650Z,82.66
2017-03-22T03:29:36.130Z,82.68
2017-03-22T03:29:57.833Z,82.84
2017-03-22T03:30:19.554Z,82.94
2017-03-22T03:30:41.275Z,82.95
2017-03-22T03:31:02.994Z,82.88
2017-03-22T03:31:24.726Z,82.76
2017-03-22T03:31:46.466Z,82.60
2017-03-22T03:32:08.213Z,82.49
2017-03-22T03:32:29.949Z,82.59
2017-03-22T03:32:51.679Z,82.72
2017-03-22T03:33:13.406Z,82.90
2017-03-22T03:33:35.135Z,83.03
2017-03-22T03:33:56.860Z,83.19
2017-03-22T03:34:18.597Z,83.26
2017-03-22T03:34:40.322Z,83.07
2017-03-22T03:35:02.050Z,83.12
2017-03-22T03:35:23.828Z,83.40
2017-03-22T03:35:45.542Z,83.34
2017-03-22T03:36:07.273Z,83.42
2017-03-22T03:36:29.019Z,83.42
2017-03-22T03:36:50.739Z,83.56
2017-03-22T03:37:12.448Z,83.52
2017-03-22T03:37:38.929Z,83.60
2017-03-22T03:38:00.642Z,83.59
2017-03-22T03:38:59.008Z,83.35
2017-03-22T03:39:20.720Z,83.25
2017-03-22T03:40:23.272Z,84.31
2017-03-22T03:40:44.984Z,84.94
2017-03-22T03:41:16.257Z,84.93
2017-03-22T03:41:37.979Z,84.84
2017-03-22T03:41:59.702Z,84.93
2017-03-22T03:42:30.961Z,84.98
2017-03-22T03:42:52.690Z,84.81
2017-03-22T03:43:14.418Z,84.75
2017-03-22T03:43:45.681Z,84.43
2017-03-22T03:44:07.425Z,84.27
2017-03-22T03:44:29.162Z,84.12
2017-03-22T03:44:55.658Z,84.05
2017-03-22T03:45:17.382Z,84.14
2017-03-22T03:45:39.149Z,84.15
2017-03-22T03:46:05.668Z,84.24
2017-03-22T03:46:27.400Z,84.20
2017-03-22T03:46:58.648Z,84.04
2017-03-22T03:47:20.361Z,83.83
2017-03-22T03:47:42.111Z,83.80
2017-03-22T03:48:04.091Z,83.96
2017-03-22T03:48:25.951Z,83.94
2017-03-22T03:48:47.798Z,84.17
2017-03-22T03:49:09.452Z,84.51
2017-03-22T03:49:31.213Z,84.58
2017-03-22T03:49:52.957Z,84.53
2017-03-22T03:50:14.692Z,84.19
2017-03-22T03:50:36.424Z,83.86
2017-03-22T03:50:58.174Z,83.76
2017-03-22T03:51:19.920Z,83.46
2017-03-22T03:51:41.641Z,83.33
2017-03-22T03:52:03.345Z,83.48
2017-03-22T03:52:34.630Z,83.69
2017-03-22T03:52:56.373Z,83.66
2017-03-22T03:53:18.091Z,83.45
2017-03-22T03:53:39.861Z,83.32
2017-03-22T03:54:01.580Z,83.56
2017-03-22T03:54:23.333Z,83.62
2017-03-22T03:54:49.832Z,83.39
2017-03-22T03:55:11.547Z,83.61
2017-03-22T03:55:38.078Z,83.36
2017-03-22T03:55:59.781Z,83.31
2017-03-22T03:56:21.507Z,83.31
2017-03-22T03:56:43.281Z,83.31
2017-03-22T03:57:05.037Z,83.21
2017-03-22T03:57:26.746Z,83.23
2017-03-22T03:57:48.490Z,83.58
2017-03-22T03:58:10.391Z,83.62
2017-03-22T03:58:32.119Z,84.03
2017-03-22T03:58:54.040Z,84.25
2017-03-22T03:59:56.549Z,85.09
2017-03-22T04:00:27.806Z,85.24
2017-03-22T04:00:49.522Z,85.40
2017-03-22T04:01:11.221Z,85.64
2017-03-22T04:01:32.919Z,85.76
2017-03-22T04:01:54.648Z,85.63
2017-03-22T04:02:17.384Z,85.45
2017-03-22T04:02:43.861Z,85.26
2017-03-22T04:03:05.577Z,85.00
2017-03-22T04:03:27.304Z,85.02
2017-03-22T04:03:49.022Z,84.70
2017-03-22T04:04:10.788Z,84.84
2017-03-22T04:04:32.510Z,84.68
2017-03-22T04:04:54.225Z,84.80
2017-03-22T04:05:15.948Z,84.85
2017-03-22T04:05:37.676Z,84.71
2017-03-22T04:05:59.590Z,84.50
2017-03-22T04:06:21.321Z,84.56
2017-03-22T04:06:43.055Z,84.61
2017-03-22T04:07:04.830Z,84.55
2017-03-22T04:07:26.565Z,84.61
2017-03-22T04:07:48.298Z,84.52
2017-03-22T04:08:10.036Z,84.57
2017-03-22T04:08:31.758Z,84.51
2017-03-22T04:08:53.486Z,84.36
2017-03-22T04:09:15.220Z,84.24
2017-03-22T04:09:36.945Z,84.16
2017-03-22T04:09:58.677Z,84.08
2017-03-22T04:10:20.409Z,83.96
2017-03-22T04:10:42.113Z,83.68
2017-03-22T04:11:03.913Z,83.58
2017-03-22T04:11:25.637Z,83.51
2017-03-22T04:11:47.368Z,83.42
2017-03-22T04:12:18.636Z,83.33
2017-03-22T04:12:40.326Z,83.54
2017-03-22T04:13:02.058Z,83.42
2017-03-22T04:13:23.794Z,83.28
2017-03-22T04:13:45.524Z,83.38
2017-03-22T04:14:07.273Z,83.51
2017-03-22T04:14:28.996Z,83.55
2017-03-22T04:14:50.728Z,83.58
2017-03-22T04:15:53.417Z,83.83
2017-03-22T04:16:19.922Z,84.07
2017-03-22T04:16:41.708Z,84.39
2017-03-22T04:17:03.394Z,84.67
2017-03-22T04:17:25.178Z,84.50
2017-03-22T04:17:46.882Z,84.47
2017-03-22T04:18:08.588Z,84.47
2017-03-22T04:18:30.283Z,84.30
2017-03-22T04:18:52.113Z,84.12
2017-03-22T04:19:13.803Z,84.36
2017-03-22T04:19:35.499Z,84.38
2017-03-22T04:20:02.056Z,84.64
2017-03-22T04:20:23.745Z,84.54
2017-03-22T04:20:45.450Z,84.57
2017-03-22T04:21:07.150Z,84.54
2017-03-22T04:21:28.941Z,84.85
2017-03-22T04:21:50.632Z,84.75
2017-03-22T04:22:12.337Z,84.65
2017-03-22T04:22:34.039Z,84.62
2017-03-22T04:22:55.828Z,84.64
2017-03-22T04:23:17.532Z,84.65
2017-03-22T04:23:39.231Z,84.50
2017-03-22T04:24:05.800Z,84.59
2017-03-22T04:24:27.498Z,84.64
2017-03-22T04:24:49.200Z,84.59
2017-03-22T04:25:20.462Z,84.89
2017-03-22T04:25:42.283Z,85.02
2017-03-22T04:26:40.708Z,85.44
2017-03-22T04:27:02.397Z,85.53
2017-03-22T04:27:28.878Z,85.58
2017-03-22T04:27:50.568Z,85.39
2017-03-22T04:28:12.363Z,85.39
2017-03-22T04:28:34.063Z,85.36
2017-03-22T04:28:55.754Z,85.56
2017-03-22T04:29:26.999Z,85.73
2017-03-22T04:29:48.803Z,85.71
2017-03-22T04:30:10.506Z,85.64
2017-03-22T04:30:32.203Z,85.75
2017-03-22T04:30:53.986Z,85.78
2017-03-22T04:31:20.461Z,85.83
2017-03-22T04:31:42.215Z,85.87
2017-03-22T04:32:03.997Z,85.84
2017-03-22T04:32:30.481Z,86.06
2017-03-22T04:32:52.210Z,86.13
2017-03-22T04:33:13.990Z,86.04
2017-03-22T04:33:45.241Z,85.60
2017-03-22T04:34:06.943Z,85.39
2017-03-22T04:35:05.367Z,84.91
2017-03-22T04:36:07.955Z,84.90
2017-03-22T04:36:29.645Z,84.68
2017-03-22T04:36:51.369Z,84.36
2017-03-22T04:37:13.069Z,84.11
2017-03-22T04:37:39.661Z,84.04
2017-03-22T04:38:01.356Z,84.03
2017-03-22T04:38:23.056Z,83.90
2017-03-22T04:38:44.751Z,83.72
2017-03-22T04:39:06.518Z,83.49
2017-03-22T04:39:28.213Z,83.46
2017-03-22T04:39:59.470Z,83.50
2017-03-22T04:40:21.248Z,83.56
2017-03-22T04:40:47.728Z,83.73
2017-03-22T04:41:09.477Z,83.69
2017-03-22T04:41:31.227Z,83.70
2017-03-22T04:41:52.945Z,83.75
2017-03-22T04:42:14.636Z,83.67
2017-03-22T04:42:36.331Z,83.46
2017-03-22T04:42:58.167Z,83.49
2017-03-22T04:43:19.871Z,83.50
2017-03-22T04:43:41.574Z,83.42
2017-03-22T04:44:03.281Z,83.34
2017-03-22T04:44:25.067Z,83.45
2017-03-22T04:44:46.767Z,83.44
2017-03-22T04:45:08.460Z,83.38
2017-03-22T04:45:39.716Z,83.33
2017-03-22T04:46:01.494Z,83.29
2017-03-22T04:47:08.847Z,83.59
2017-03-22T04:47:30.563Z,83.57
2017-03-22T04:48:28.958Z,83.47
2017-03-22T04:48:50.699Z,83.51
2017-03-22T04:49:21.950Z,83.41
2017-03-22T04:49:43.722Z,83.71
2017-03-22T04:50:05.426Z,83.70
2017-03-22T04:51:03.775Z,83.62
2017-03-22T04:51:25.469Z,83.64
2017-03-22T04:51:47.165Z,83.87
2017-03-22T04:52:08.894Z,84.09
2017-03-22T04:52:30.665Z,84.21
2017-03-22T04:53:28.950Z,83.85
2017-03-22T04:53:55.482Z,83.94
2017-03-22T04:54:26.742Z,84.00
2017-03-22T04:54:48.438Z,83.93
2017-03-22T04:55:10.240Z,83.89
2017-03-22T04:55:31.965Z,83.77
2017-03-22T04:55:53.651Z,83.68
2017-03-22T04:56:15.357Z,83.67
2017-03-22T04:56:41.905Z,83.66
2017-03-22T04:57:03.604Z,83.77
2017-03-22T04:57:25.322Z,84.17
2017-03-22T04:57:51.794Z,84.23
2017-03-22T04:58:13.617Z,84.25
2017-03-22T04:58:35.327Z,84.05
2017-03-22T04:59:01.808Z,83.90
2017-03-22T04:59:23.592Z,83.93
2017-03-22T04:59:50.057Z,84.06
2017-03-22T05:00:11.749Z,84.19
2017-03-22T05:00:38.291Z,84.10
2017-03-22T05:00:59.976Z,83.92
2017-03-22T05:01:21.672Z,83.95
2017-03-22T05:01:48.163Z,83.64
2017-03-22T05:02:09.939Z,83.39
2017-03-22T05:02:41.187Z,83.31
2017-03-22T05:03:02.885Z,83.55
2017-03-22T05:03:24.692Z,83.78
2017-03-22T05:03:46.446Z,83.85
2017-03-22T05:04:08.130Z,83.70
2017-03-22T05:04:34.704Z,83.69
2017-03-22T05:04:56.406Z,83.70
2017-03-22T05:05:22.885Z,83.57
2017-03-22T05:05:44.599Z,83.52
2017-03-22T05:06:06.386Z,83.32
2017-03-22T05:06:28.092Z,83.78
2017-03-22T05:06:49.823Z,83.73
2017-03-22T05:07:21.030Z,83.50
2017-03-22T05:07:42.823Z,83.53
2017-03-22T05:08:09.369Z,84.14
2017-03-22T05:08:31.146Z,84.52
2017-03-22T05:08:52.855Z,84.80
2017-03-22T05:09:19.323Z,84.73
2017-03-22T05:09:41.010Z,84.65
2017-03-22T05:10:02.791Z,84.61
2017-03-22T05:10:29.274Z,84.57
2017-03-22T05:10:50.970Z,84.25
2017-03-22T05:11:17.527Z,84.23
2017-03-22T05:11:39.220Z,84.10
2017-03-22T05:12:38.609Z,84.22
2017-03-22T05:13:00.317Z,84.67
2017-03-22T05:13:22.054Z,84.80
2017-03-22T05:13:43.745Z,84.95
2017-03-22T05:14:05.444Z,85.08
2017-03-22T05:14:27.147Z,85.19
2017-03-22T05:14:53.633Z,84.93
2017-03-22T05:15:15.404Z,84.61
2017-03-22T05:15:41.884Z,84.33
2017-03-22T05:16:03.575Z,84.75
2017-03-22T05:16:34.844Z,85.21
2017-03-22T05:16:56.653Z,85.21
2017-03-22T05:17:23.135Z,85.14
2017-03-22T05:17:44.829Z,85.01
2017-03-22T05:18:06.626Z,84.79
2017-03-22T05:18:28.349Z,84.65
2017-03-22T05:18:50.036Z,84.54
2017-03-22T05:19:16.585Z,84.37
2017-03-22T05:19:38.302Z,84.40
2017-03-22T05:19:59.995Z,84.30
2017-03-22T05:21:02.507Z,84.30
2017-03-22T05:21:24.207Z,84.10
2017-03-22T05:22:22.613Z,84.12
2017-03-22T05:22:44.306Z,84.18
2017-03-22T05:23:15.558Z,84.40